sensor_id;sensor_type;location;lat;lon;timestamp;P1;durP1;ratioP1;P2;durP2;ratioP2
5499;SDS011;2772;42.700;23.304;2022-08-06T00:01:54;28.47;;;16.30;;
5499;SDS011;2772;42.700;23.304;2022-08-06T00:04:21;19.53;;;12.60;;
5499;SDS011;2772;42.700;23.304;2022-08-06T00:06:48;16.33;;;12.57;;
5499;SDS011;2772;42.700;23.304;2022-08-06T00:09:15;22.97;;;15.07;;
5499;SDS011;2772;42.700;23.304;2022-08-06T00:11:43;17.30;;;12.27;;
5499;SDS011;2772;42.700;23.304;2022-08-06T00:14:10;19.57;;;11.37;;
5499;SDS011;2772;42.700;23.304;2022-08-06T00:16:37;18.07;;;11.53;;
5499;SDS011;2772;42.700;23.304;2022-08-06T00:19:04;20.60;;;12.90;;
5499;SDS011;2772;42.700;23.304;2022-08-06T00:21:31;28.93;;;16.23;;
5499;SDS011;2772;42.700;23.304;2022-08-06T00:23:58;12.80;;;9.70;;
5499;SDS011;2772;42.700;23.304;2022-08-06T00:26:25;15.30;;;9.53;;
5499;SDS011;2772;42.700;23.304;2022-08-06T00:28:53;16.10;;;10.07;;
5499;SDS011;2772;42.700;23.304;2022-08-06T00:31:20;13.13;;;9.80;;
5499;SDS011;2772;42.700;23.304;2022-08-06T00:33:47;15.77;;;8.33;;
5499;SDS011;2772;42.700;23.304;2022-08-06T00:36:14;10.43;;;9.33;;
5499;SDS011;2772;42.700;23.304;2022-08-06T00:38:40;11.63;;;9.53;;
5499;SDS011;2772;42.700;23.304;2022-08-06T00:41:07;12.87;;;9.40;;
5499;SDS011;2772;42.700;23.304;2022-08-06T00:43:34;13.33;;;9.93;;
5499;SDS011;2772;42.700;23.304;2022-08-06T00:46:03;11.20;;;9.60;;
5499;SDS011;2772;42.700;23.304;2022-08-06T00:48:30;13.20;;;9.73;;
5499;SDS011;2772;42.700;23.304;2022-08-06T00:50:56;13.10;;;10.03;;
5499;SDS011;2772;42.700;23.304;2022-08-06T00:53:23;11.93;;;10.00;;
5499;SDS011;2772;42.700;23.304;2022-08-06T00:55:50;10.33;;;9.30;;
5499;SDS011;2772;42.700;23.304;2022-08-06T00:58:17;12.30;;;10.27;;
5499;SDS011;2772;42.700;23.304;2022-08-06T01:00:44;11.03;;;9.00;;
5499;SDS011;2772;42.700;23.304;2022-08-06T01:03:12;11.70;;;9.50;;
5499;SDS011;2772;42.700;23.304;2022-08-06T01:05:41;11.73;;;9.50;;
5499;SDS011;2772;42.700;23.304;2022-08-06T01:08:08;11.37;;;9.67;;
5499;SDS011;2772;42.700;23.304;2022-08-06T01:10:35;12.63;;;9.00;;
5499;SDS011;2772;42.700;23.304;2022-08-06T01:13:02;11.70;;;9.80;;
5499;SDS011;2772;42.700;23.304;2022-08-06T01:15:29;10.70;;;9.23;;
5499;SDS011;2772;42.700;23.304;2022-08-06T01:17:58;14.60;;;9.90;;
5499;SDS011;2772;42.700;23.304;2022-08-06T01:20:41;11.57;;;9.10;;
5499;SDS011;2772;42.700;23.304;2022-08-06T01:23:26;11.90;;;10.00;;
5499;SDS011;2772;42.700;23.304;2022-08-06T01:26:08;10.50;;;9.47;;
5499;SDS011;2772;42.700;23.304;2022-08-06T01:28:56;12.10;;;8.80;;
5499;SDS011;2772;42.700;23.304;2022-08-06T01:31:28;13.77;;;9.00;;
5499;SDS011;2772;42.700;23.304;2022-08-06T01:33:59;10.70;;;9.60;;
5499;SDS011;2772;42.700;23.304;2022-08-06T01:36:33;11.33;;;9.33;;
5499;SDS011;2772;42.700;23.304;2022-08-06T01:39:05;11.83;;;9.43;;
5499;SDS011;2772;42.700;23.304;2022-08-06T01:41:34;11.90;;;9.97;;
5499;SDS011;2772;42.700;23.304;2022-08-06T01:44:10;11.70;;;8.93;;
5499;SDS011;2772;42.700;23.304;2022-08-06T01:46:44;9.83;;;8.90;;
5499;SDS011;2772;42.700;23.304;2022-08-06T01:49:15;16.03;;;9.47;;
5499;SDS011;2772;42.700;23.304;2022-08-06T01:51:45;10.93;;;8.80;;
5499;SDS011;2772;42.700;23.304;2022-08-06T01:54:16;11.10;;;9.80;;
5499;SDS011;2772;42.700;23.304;2022-08-06T01:56:44;13.53;;;9.33;;
5499;SDS011;2772;42.700;23.304;2022-08-06T01:59:16;18.77;;;10.10;;
5499;SDS011;2772;42.700;23.304;2022-08-06T02:01:46;15.33;;;10.03;;
5499;SDS011;2772;42.700;23.304;2022-08-06T02:04:15;10.07;;;8.90;;
5499;SDS011;2772;42.700;23.304;2022-08-06T02:06:45;10.47;;;9.10;;
5499;SDS011;2772;42.700;23.304;2022-08-06T02:09:14;13.87;;;8.77;;
5499;SDS011;2772;42.700;23.304;2022-08-06T02:11:44;12.83;;;9.23;;
5499;SDS011;2772;42.700;23.304;2022-08-06T02:14:17;10.50;;;8.23;;
5499;SDS011;2772;42.700;23.304;2022-08-06T02:16:47;9.93;;;8.93;;
5499;SDS011;2772;42.700;23.304;2022-08-06T02:19:15;15.77;;;8.20;;
5499;SDS011;2772;42.700;23.304;2022-08-06T02:21:46;10.00;;;9.00;;
5499;SDS011;2772;42.700;23.304;2022-08-06T02:24:14;9.67;;;8.67;;
5499;SDS011;2772;42.700;23.304;2022-08-06T02:26:42;11.10;;;8.57;;
5499;SDS011;2772;42.700;23.304;2022-08-06T02:29:11;10.30;;;8.73;;
5499;SDS011;2772;42.700;23.304;2022-08-06T02:31:44;12.50;;;8.73;;
5499;SDS011;2772;42.700;23.304;2022-08-06T02:34:10;10.33;;;8.77;;
5499;SDS011;2772;42.700;23.304;2022-08-06T02:36:38;9.67;;;8.77;;
5499;SDS011;2772;42.700;23.304;2022-08-06T02:39:08;13.80;;;8.93;;
5499;SDS011;2772;42.700;23.304;2022-08-06T02:41:41;9.43;;;8.53;;
5499;SDS011;2772;42.700;23.304;2022-08-06T02:44:12;10.67;;;9.30;;
5499;SDS011;2772;42.700;23.304;2022-08-06T02:46:46;10.10;;;8.80;;
5499;SDS011;2772;42.700;23.304;2022-08-06T02:49:19;14.30;;;9.30;;
5499;SDS011;2772;42.700;23.304;2022-08-06T02:51:50;11.20;;;9.40;;
5499;SDS011;2772;42.700;23.304;2022-08-06T02:54:21;10.00;;;8.90;;
5499;SDS011;2772;42.700;23.304;2022-08-06T02:56:53;12.80;;;9.43;;
5499;SDS011;2772;42.700;23.304;2022-08-06T02:59:26;14.90;;;9.40;;
5499;SDS011;2772;42.700;23.304;2022-08-06T03:01:57;10.00;;;8.67;;
5499;SDS011;2772;42.700;23.304;2022-08-06T03:04:29;12.27;;;9.17;;
5499;SDS011;2772;42.700;23.304;2022-08-06T03:07:00;9.60;;;8.70;;
5499;SDS011;2772;42.700;23.304;2022-08-06T03:09:31;10.43;;;9.30;;
5499;SDS011;2772;42.700;23.304;2022-08-06T03:11:59;11.83;;;9.40;;
5499;SDS011;2772;42.700;23.304;2022-08-06T03:14:27;10.00;;;8.70;;
5499;SDS011;2772;42.700;23.304;2022-08-06T03:16:56;13.20;;;9.77;;
5499;SDS011;2772;42.700;23.304;2022-08-06T03:19:24;13.23;;;9.33;;
5499;SDS011;2772;42.700;23.304;2022-08-06T03:21:52;11.53;;;9.13;;
5499;SDS011;2772;42.700;23.304;2022-08-06T03:24:21;10.50;;;9.20;;
5499;SDS011;2772;42.700;23.304;2022-08-06T03:26:50;11.27;;;9.10;;
5499;SDS011;2772;42.700;23.304;2022-08-06T03:29:18;24.63;;;8.80;;
5499;SDS011;2772;42.700;23.304;2022-08-06T03:31:46;11.07;;;9.50;;
5499;SDS011;2772;42.700;23.304;2022-08-06T03:34:14;21.23;;;8.80;;
5499;SDS011;2772;42.700;23.304;2022-08-06T03:36:41;10.10;;;9.20;;
5499;SDS011;2772;42.700;23.304;2022-08-06T03:39:09;9.70;;;8.70;;
5499;SDS011;2772;42.700;23.304;2022-08-06T03:41:39;10.60;;;9.07;;
5499;SDS011;2772;42.700;23.304;2022-08-06T03:44:08;10.20;;;9.20;;
5499;SDS011;2772;42.700;23.304;2022-08-06T03:46:37;10.70;;;9.20;;
5499;SDS011;2772;42.700;23.304;2022-08-06T03:49:16;12.00;;;9.70;;
5499;SDS011;2772;42.700;23.304;2022-08-06T03:51:47;10.57;;;9.30;;
5499;SDS011;2772;42.700;23.304;2022-08-06T03:54:17;13.07;;;10.37;;
5499;SDS011;2772;42.700;23.304;2022-08-06T03:56:46;14.63;;;10.27;;
5499;SDS011;2772;42.700;23.304;2022-08-06T03:59:14;15.77;;;10.00;;
5499;SDS011;2772;42.700;23.304;2022-08-06T04:01:43;20.23;;;10.40;;
5499;SDS011;2772;42.700;23.304;2022-08-06T04:04:12;15.80;;;10.10;;
5499;SDS011;2772;42.700;23.304;2022-08-06T04:06:43;14.90;;;9.40;;
5499;SDS011;2772;42.700;23.304;2022-08-06T04:09:11;15.53;;;9.73;;
5499;SDS011;2772;42.700;23.304;2022-08-06T04:11:40;13.20;;;10.13;;
5499;SDS011;2772;42.700;23.304;2022-08-06T04:14:08;13.17;;;9.90;;
5499;SDS011;2772;42.700;23.304;2022-08-06T04:16:36;15.97;;;10.53;;
5499;SDS011;2772;42.700;23.304;2022-08-06T04:19:04;12.47;;;9.97;;
5499;SDS011;2772;42.700;23.304;2022-08-06T04:21:33;12.63;;;10.07;;
5499;SDS011;2772;42.700;23.304;2022-08-06T04:24:00;12.33;;;10.97;;
5499;SDS011;2772;42.700;23.304;2022-08-06T04:26:27;11.37;;;9.70;;
5499;SDS011;2772;42.700;23.304;2022-08-06T04:28:55;15.57;;;10.03;;
5499;SDS011;2772;42.700;23.304;2022-08-06T04:31:23;13.87;;;9.90;;
5499;SDS011;2772;42.700;23.304;2022-08-06T04:33:53;16.80;;;10.00;;
5499;SDS011;2772;42.700;23.304;2022-08-06T04:36:21;15.87;;;10.20;;
5499;SDS011;2772;42.700;23.304;2022-08-06T04:38:51;16.07;;;10.17;;
5499;SDS011;2772;42.700;23.304;2022-08-06T04:41:18;26.60;;;10.73;;
5499;SDS011;2772;42.700;23.304;2022-08-06T04:43:46;18.83;;;10.30;;
5499;SDS011;2772;42.700;23.304;2022-08-06T04:46:13;16.73;;;11.00;;
5499;SDS011;2772;42.700;23.304;2022-08-06T04:48:40;27.13;;;12.73;;
5499;SDS011;2772;42.700;23.304;2022-08-06T04:51:07;22.47;;;11.20;;
5499;SDS011;2772;42.700;23.304;2022-08-06T04:53:37;23.07;;;12.67;;
5499;SDS011;2772;42.700;23.304;2022-08-06T04:56:07;32.80;;;15.33;;
5499;SDS011;2772;42.700;23.304;2022-08-06T04:58:35;29.03;;;15.70;;
5499;SDS011;2772;42.700;23.304;2022-08-06T05:01:02;22.93;;;13.00;;
5499;SDS011;2772;42.700;23.304;2022-08-06T05:03:29;44.87;;;18.40;;
5499;SDS011;2772;42.700;23.304;2022-08-06T05:05:59;34.60;;;18.50;;
5499;SDS011;2772;42.700;23.304;2022-08-06T05:08:30;46.30;;;19.27;;
5499;SDS011;2772;42.700;23.304;2022-08-06T05:11:01;45.03;;;18.60;;
5499;SDS011;2772;42.700;23.304;2022-08-06T05:13:39;44.00;;;19.30;;
5499;SDS011;2772;42.700;23.304;2022-08-06T05:16:11;31.33;;;17.40;;
5499;SDS011;2772;42.700;23.304;2022-08-06T05:18:42;36.57;;;16.90;;
5499;SDS011;2772;42.700;23.304;2022-08-06T05:21:12;46.27;;;17.80;;
5499;SDS011;2772;42.700;23.304;2022-08-06T05:23:47;30.73;;;18.80;;
5499;SDS011;2772;42.700;23.304;2022-08-06T05:26:16;29.23;;;15.63;;
5499;SDS011;2772;42.700;23.304;2022-08-06T05:28:45;31.47;;;18.27;;
5499;SDS011;2772;42.700;23.304;2022-08-06T05:31:12;27.37;;;15.50;;
5499;SDS011;2772;42.700;23.304;2022-08-06T05:33:39;29.77;;;16.00;;
5499;SDS011;2772;42.700;23.304;2022-08-06T05:36:08;29.67;;;18.80;;
5499;SDS011;2772;42.700;23.304;2022-08-06T05:38:36;19.17;;;13.03;;
5499;SDS011;2772;42.700;23.304;2022-08-06T05:41:04;20.23;;;12.13;;
5499;SDS011;2772;42.700;23.304;2022-08-06T05:43:33;22.33;;;14.43;;
5499;SDS011;2772;42.700;23.304;2022-08-06T05:46:03;18.97;;;14.60;;
5499;SDS011;2772;42.700;23.304;2022-08-06T05:48:34;25.27;;;12.53;;
5499;SDS011;2772;42.700;23.304;2022-08-06T05:51:07;22.97;;;13.30;;
5499;SDS011;2772;42.700;23.304;2022-08-06T05:53:41;15.10;;;12.80;;
5499;SDS011;2772;42.700;23.304;2022-08-06T05:56:10;19.70;;;13.50;;
5499;SDS011;2772;42.700;23.304;2022-08-06T05:58:47;17.03;;;13.17;;
5499;SDS011;2772;42.700;23.304;2022-08-06T06:01:19;23.00;;;13.40;;
5499;SDS011;2772;42.700;23.304;2022-08-06T06:03:46;23.83;;;13.40;;
5499;SDS011;2772;42.700;23.304;2022-08-06T06:06:14;19.40;;;13.10;;
5499;SDS011;2772;42.700;23.304;2022-08-06T06:08:41;18.07;;;12.10;;
5499;SDS011;2772;42.700;23.304;2022-08-06T06:11:08;16.50;;;12.97;;
5499;SDS011;2772;42.700;23.304;2022-08-06T06:13:37;26.73;;;12.00;;
5499;SDS011;2772;42.700;23.304;2022-08-06T06:16:09;21.00;;;13.43;;
5499;SDS011;2772;42.700;23.304;2022-08-06T06:19:02;22.30;;;12.43;;
5499;SDS011;2772;42.700;23.304;2022-08-06T06:21:39;12.77;;;11.53;;
5499;SDS011;2772;42.700;23.304;2022-08-06T06:24:17;13.80;;;11.30;;
5499;SDS011;2772;42.700;23.304;2022-08-06T06:26:50;14.27;;;11.70;;
5499;SDS011;2772;42.700;23.304;2022-08-06T06:29:28;19.30;;;12.90;;
5499;SDS011;2772;42.700;23.304;2022-08-06T06:32:01;17.30;;;12.57;;
5499;SDS011;2772;42.700;23.304;2022-08-06T06:34:41;13.37;;;11.10;;
5499;SDS011;2772;42.700;23.304;2022-08-06T06:37:16;14.37;;;10.60;;
5499;SDS011;2772;42.700;23.304;2022-08-06T06:39:54;13.77;;;10.47;;
5499;SDS011;2772;42.700;23.304;2022-08-06T06:42:31;13.50;;;10.97;;
5499;SDS011;2772;42.700;23.304;2022-08-06T06:45:05;18.20;;;9.97;;
5499;SDS011;2772;42.700;23.304;2022-08-06T06:47:40;10.77;;;9.67;;
5499;SDS011;2772;42.700;23.304;2022-08-06T06:50:15;13.30;;;10.87;;
5499;SDS011;2772;42.700;23.304;2022-08-06T06:52:46;15.30;;;10.10;;
5499;SDS011;2772;42.700;23.304;2022-08-06T06:55:17;26.73;;;11.13;;
5499;SDS011;2772;42.700;23.304;2022-08-06T06:57:50;16.57;;;11.43;;
5499;SDS011;2772;42.700;23.304;2022-08-06T07:00:19;11.60;;;9.70;;
5499;SDS011;2772;42.700;23.304;2022-08-06T07:02:47;11.17;;;9.97;;
5499;SDS011;2772;42.700;23.304;2022-08-06T07:05:17;10.60;;;9.53;;
5499;SDS011;2772;42.700;23.304;2022-08-06T07:07:47;10.73;;;9.70;;
5499;SDS011;2772;42.700;23.304;2022-08-06T07:10:16;11.30;;;9.73;;
5499;SDS011;2772;42.700;23.304;2022-08-06T07:12:45;18.23;;;11.03;;
5499;SDS011;2772;42.700;23.304;2022-08-06T07:15:14;13.20;;;10.53;;
5499;SDS011;2772;42.700;23.304;2022-08-06T07:17:43;12.00;;;10.03;;
5499;SDS011;2772;42.700;23.304;2022-08-06T07:20:11;11.40;;;10.07;;
5499;SDS011;2772;42.700;23.304;2022-08-06T07:22:42;10.80;;;9.80;;
5499;SDS011;2772;42.700;23.304;2022-08-06T07:25:11;17.10;;;10.00;;
5499;SDS011;2772;42.700;23.304;2022-08-06T07:27:40;12.57;;;9.63;;
5499;SDS011;2772;42.700;23.304;2022-08-06T07:30:12;19.30;;;9.60;;
5499;SDS011;2772;42.700;23.304;2022-08-06T07:32:40;12.63;;;9.47;;
5499;SDS011;2772;42.700;23.304;2022-08-06T07:35:09;21.93;;;10.70;;
5499;SDS011;2772;42.700;23.304;2022-08-06T07:37:39;16.23;;;9.90;;
5499;SDS011;2772;42.700;23.304;2022-08-06T07:40:12;18.90;;;10.30;;
5499;SDS011;2772;42.700;23.304;2022-08-06T07:42:44;13.60;;;11.00;;
5499;SDS011;2772;42.700;23.304;2022-08-06T07:45:13;13.53;;;10.07;;
5499;SDS011;2772;42.700;23.304;2022-08-06T07:47:41;11.43;;;10.23;;
5499;SDS011;2772;42.700;23.304;2022-08-06T07:50:10;15.70;;;10.20;;
5499;SDS011;2772;42.700;23.304;2022-08-06T07:52:39;19.30;;;9.80;;
5499;SDS011;2772;42.700;23.304;2022-08-06T07:55:09;12.23;;;9.80;;
5499;SDS011;2772;42.700;23.304;2022-08-06T08:50:36;11.43;;;8.13;;
5499;SDS011;2772;42.700;23.304;2022-08-06T08:53:07;11.33;;;8.50;;
5499;SDS011;2772;42.700;23.304;2022-08-06T08:55:38;17.10;;;8.50;;
5499;SDS011;2772;42.700;23.304;2022-08-06T08:58:06;10.10;;;8.97;;
5499;SDS011;2772;42.700;23.304;2022-08-06T09:00:34;10.30;;;7.33;;
5499;SDS011;2772;42.700;23.304;2022-08-06T09:03:02;10.07;;;7.13;;
5499;SDS011;2772;42.700;23.304;2022-08-06T09:05:30;7.40;;;6.70;;
5499;SDS011;2772;42.700;23.304;2022-08-06T09:07:59;8.40;;;7.23;;
5499;SDS011;2772;42.700;23.304;2022-08-06T09:10:28;9.20;;;6.93;;
5499;SDS011;2772;42.700;23.304;2022-08-06T09:12:55;7.43;;;6.73;;
5499;SDS011;2772;42.700;23.304;2022-08-06T09:15:22;11.23;;;7.30;;
5499;SDS011;2772;42.700;23.304;2022-08-06T09:17:49;7.23;;;6.53;;
5499;SDS011;2772;42.700;23.304;2022-08-06T09:20:16;8.57;;;7.37;;
5499;SDS011;2772;42.700;23.304;2022-08-06T09:22:43;8.13;;;6.00;;
5499;SDS011;2772;42.700;23.304;2022-08-06T09:25:36;11.37;;;6.27;;
5499;SDS011;2772;42.700;23.304;2022-08-06T09:28:08;11.47;;;6.60;;
5499;SDS011;2772;42.700;23.304;2022-08-06T09:30:36;6.27;;;5.70;;
5499;SDS011;2772;42.700;23.304;2022-08-06T09:33:09;5.83;;;5.43;;
5499;SDS011;2772;42.700;23.304;2022-08-06T09:35:37;7.00;;;6.00;;
5499;SDS011;2772;42.700;23.304;2022-08-06T09:38:05;5.63;;;5.33;;
5499;SDS011;2772;42.700;23.304;2022-08-06T09:40:35;5.43;;;5.03;;
5499;SDS011;2772;42.700;23.304;2022-08-06T09:43:02;5.40;;;4.90;;
5499;SDS011;2772;42.700;23.304;2022-08-06T09:45:29;5.90;;;5.53;;
5499;SDS011;2772;42.700;23.304;2022-08-06T09:48:00;6.10;;;5.50;;
5499;SDS011;2772;42.700;23.304;2022-08-06T09:50:34;9.10;;;5.20;;
5499;SDS011;2772;42.700;23.304;2022-08-06T09:53:03;10.03;;;6.57;;
5499;SDS011;2772;42.700;23.304;2022-08-06T09:55:30;6.07;;;5.37;;
5499;SDS011;2772;42.700;23.304;2022-08-06T09:57:59;6.73;;;5.50;;
5499;SDS011;2772;42.700;23.304;2022-08-06T10:00:27;13.73;;;6.23;;
5499;SDS011;2772;42.700;23.304;2022-08-06T10:02:55;14.10;;;5.90;;
5499;SDS011;2772;42.700;23.304;2022-08-06T10:05:23;6.83;;;5.60;;
5499;SDS011;2772;42.700;23.304;2022-08-06T10:08:01;16.37;;;6.30;;
5499;SDS011;2772;42.700;23.304;2022-08-06T10:10:37;5.80;;;5.40;;
5499;SDS011;2772;42.700;23.304;2022-08-06T10:13:18;8.63;;;5.13;;
5499;SDS011;2772;42.700;23.304;2022-08-06T10:15:49;8.37;;;5.97;;
5499;SDS011;2772;42.700;23.304;2022-08-06T10:20:59;6.10;;;5.70;;
5499;SDS011;2772;42.700;23.304;2022-08-06T10:23:29;6.13;;;5.73;;
5499;SDS011;2772;42.700;23.304;2022-08-06T10:25:58;6.10;;;5.53;;
5499;SDS011;2772;42.700;23.304;2022-08-06T10:28:27;6.33;;;5.83;;
5499;SDS011;2772;42.700;23.304;2022-08-06T10:30:57;6.53;;;5.90;;
5499;SDS011;2772;42.700;23.304;2022-08-06T10:33:26;8.13;;;5.70;;
5499;SDS011;2772;42.700;23.304;2022-08-06T10:35:59;10.53;;;5.93;;
5499;SDS011;2772;42.700;23.304;2022-08-06T10:38:29;6.57;;;5.60;;
5499;SDS011;2772;42.700;23.304;2022-08-06T10:40:59;10.63;;;6.20;;
5499;SDS011;2772;42.700;23.304;2022-08-06T10:43:34;12.83;;;6.10;;
5499;SDS011;2772;42.700;23.304;2022-08-06T10:46:03;5.97;;;5.47;;
5499;SDS011;2772;42.700;23.304;2022-08-06T10:48:31;6.33;;;5.40;;
5499;SDS011;2772;42.700;23.304;2022-08-06T10:51:00;6.37;;;5.83;;
5499;SDS011;2772;42.700;23.304;2022-08-06T10:53:27;7.47;;;6.17;;
5499;SDS011;2772;42.700;23.304;2022-08-06T10:55:56;10.03;;;5.47;;
5499;SDS011;2772;42.700;23.304;2022-08-06T10:58:26;8.20;;;5.57;;
5499;SDS011;2772;42.700;23.304;2022-08-06T11:00:54;6.20;;;5.50;;
5499;SDS011;2772;42.700;23.304;2022-08-06T11:03:24;6.00;;;5.40;;
5499;SDS011;2772;42.700;23.304;2022-08-06T11:06:04;5.80;;;5.33;;
5499;SDS011;2772;42.700;23.304;2022-08-06T11:08:48;7.40;;;5.50;;
5499;SDS011;2772;42.700;23.304;2022-08-06T11:11:26;6.37;;;5.77;;
5499;SDS011;2772;42.700;23.304;2022-08-06T11:14:07;5.80;;;5.27;;
5499;SDS011;2772;42.700;23.304;2022-08-06T11:16:37;5.60;;;5.10;;
5499;SDS011;2772;42.700;23.304;2022-08-06T11:19:04;6.90;;;4.90;;
5499;SDS011;2772;42.700;23.304;2022-08-06T11:21:36;5.80;;;5.50;;
5499;SDS011;2772;42.700;23.304;2022-08-06T11:24:06;5.40;;;5.10;;
5499;SDS011;2772;42.700;23.304;2022-08-06T11:26:34;5.50;;;5.20;;
5499;SDS011;2772;42.700;23.304;2022-08-06T11:29:02;5.67;;;5.17;;
5499;SDS011;2772;42.700;23.304;2022-08-06T11:31:32;5.93;;;5.30;;
5499;SDS011;2772;42.700;23.304;2022-08-06T11:34:02;6.17;;;5.57;;
5499;SDS011;2772;42.700;23.304;2022-08-06T11:36:42;6.10;;;5.67;;
5499;SDS011;2772;42.700;23.304;2022-08-06T11:39:11;11.50;;;5.40;;
5499;SDS011;2772;42.700;23.304;2022-08-06T11:41:45;11.03;;;5.53;;
5499;SDS011;2772;42.700;23.304;2022-08-06T11:44:17;6.57;;;5.80;;
5499;SDS011;2772;42.700;23.304;2022-08-06T11:46:45;13.70;;;6.80;;
5499;SDS011;2772;42.700;23.304;2022-08-06T11:49:15;8.70;;;6.40;;
5499;SDS011;2772;42.700;23.304;2022-08-06T11:51:48;7.13;;;6.03;;
5499;SDS011;2772;42.700;23.304;2022-08-06T11:54:17;6.80;;;6.30;;
5499;SDS011;2772;42.700;23.304;2022-08-06T11:59:48;7.07;;;6.53;;
5499;SDS011;2772;42.700;23.304;2022-08-06T12:02:49;17.10;;;7.17;;
5499;SDS011;2772;42.700;23.304;2022-08-06T12:05:34;6.00;;;5.60;;
5499;SDS011;2772;42.700;23.304;2022-08-06T12:08:14;6.60;;;6.00;;
5499;SDS011;2772;42.700;23.304;2022-08-06T12:13:53;8.03;;;6.10;;
5499;SDS011;2772;42.700;23.304;2022-08-06T12:16:31;6.27;;;5.87;;
5499;SDS011;2772;42.700;23.304;2022-08-06T12:19:00;6.95;;;6.30;;
5499;SDS011;2772;42.700;23.304;2022-08-06T12:21:29;7.63;;;6.10;;
5499;SDS011;2772;42.700;23.304;2022-08-06T12:23:56;6.63;;;6.10;;
5499;SDS011;2772;42.700;23.304;2022-08-06T12:26:23;6.30;;;5.80;;
5499;SDS011;2772;42.700;23.304;2022-08-06T12:28:59;7.90;;;6.40;;
5499;SDS011;2772;42.700;23.304;2022-08-06T12:31:27;6.23;;;5.73;;
5499;SDS011;2772;42.700;23.304;2022-08-06T12:33:55;6.30;;;5.90;;
5499;SDS011;2772;42.700;23.304;2022-08-06T12:36:25;6.40;;;6.00;;
5499;SDS011;2772;42.700;23.304;2022-08-06T12:38:55;7.27;;;6.53;;
5499;SDS011;2772;42.700;23.304;2022-08-06T12:41:23;6.93;;;6.40;;
5499;SDS011;2772;42.700;23.304;2022-08-06T12:43:58;7.57;;;6.77;;
5499;SDS011;2772;42.700;23.304;2022-08-06T12:46:25;7.77;;;7.07;;
5499;SDS011;2772;42.700;23.304;2022-08-06T12:48:52;6.77;;;6.27;;
5499;SDS011;2772;42.700;23.304;2022-08-06T12:51:19;6.07;;;5.50;;
5499;SDS011;2772;42.700;23.304;2022-08-06T12:53:47;6.47;;;5.87;;
5499;SDS011;2772;42.700;23.304;2022-08-06T12:56:16;8.07;;;5.30;;
5499;SDS011;2772;42.700;23.304;2022-08-06T12:58:44;5.80;;;5.40;;
5499;SDS011;2772;42.700;23.304;2022-08-06T13:01:15;9.83;;;5.63;;
5499;SDS011;2772;42.700;23.304;2022-08-06T13:03:45;5.67;;;5.27;;
5499;SDS011;2772;42.700;23.304;2022-08-06T13:06:13;7.10;;;6.60;;
5499;SDS011;2772;42.700;23.304;2022-08-06T13:08:44;4.97;;;4.67;;
5499;SDS011;2772;42.700;23.304;2022-08-06T13:11:13;7.40;;;5.50;;
5499;SDS011;2772;42.700;23.304;2022-08-06T13:13:44;6.37;;;5.23;;
5499;SDS011;2772;42.700;23.304;2022-08-06T13:16:13;5.03;;;4.73;;
5499;SDS011;2772;42.700;23.304;2022-08-06T13:18:41;8.00;;;5.67;;
5499;SDS011;2772;42.700;23.304;2022-08-06T13:21:29;6.20;;;5.60;;
5499;SDS011;2772;42.700;23.304;2022-08-06T13:23:56;6.40;;;6.00;;
5499;SDS011;2772;42.700;23.304;2022-08-06T13:26:23;6.50;;;5.90;;
5499;SDS011;2772;42.700;23.304;2022-08-06T13:29:05;6.30;;;5.90;;
5499;SDS011;2772;42.700;23.304;2022-08-06T13:31:34;7.93;;;5.83;;
5499;SDS011;2772;42.700;23.304;2022-08-06T13:34:03;6.77;;;6.10;;
5499;SDS011;2772;42.700;23.304;2022-08-06T13:36:31;6.43;;;6.00;;
5499;SDS011;2772;42.700;23.304;2022-08-06T13:39:16;8.63;;;6.03;;
5499;SDS011;2772;42.700;23.304;2022-08-06T13:41:45;6.90;;;6.30;;
5499;SDS011;2772;42.700;23.304;2022-08-06T13:44:29;7.80;;;7.10;;
5499;SDS011;2772;42.700;23.304;2022-08-06T13:46:57;13.27;;;7.43;;
5499;SDS011;2772;42.700;23.304;2022-08-06T13:49:24;7.03;;;6.40;;
5499;SDS011;2772;42.700;23.304;2022-08-06T13:51:50;7.47;;;6.60;;
5499;SDS011;2772;42.700;23.304;2022-08-06T13:54:18;6.50;;;6.10;;
5499;SDS011;2772;42.700;23.304;2022-08-06T13:56:45;11.20;;;6.70;;
5499;SDS011;2772;42.700;23.304;2022-08-06T13:59:13;8.03;;;6.37;;
5499;SDS011;2772;42.700;23.304;2022-08-06T14:01:42;6.93;;;6.43;;
5499;SDS011;2772;42.700;23.304;2022-08-06T14:04:10;6.80;;;6.30;;
5499;SDS011;2772;42.700;23.304;2022-08-06T14:06:37;6.90;;;6.30;;
5499;SDS011;2772;42.700;23.304;2022-08-06T14:09:04;6.40;;;6.00;;
5499;SDS011;2772;42.700;23.304;2022-08-06T14:11:31;7.80;;;6.20;;
5499;SDS011;2772;42.700;23.304;2022-08-06T14:13:58;7.33;;;5.60;;
5499;SDS011;2772;42.700;23.304;2022-08-06T14:16:24;6.70;;;6.20;;
5499;SDS011;2772;42.700;23.304;2022-08-06T14:18:53;7.83;;;5.70;;
5499;SDS011;2772;42.700;23.304;2022-08-06T14:21:20;6.87;;;6.37;;
5499;SDS011;2772;42.700;23.304;2022-08-06T14:23:47;6.47;;;5.87;;
5499;SDS011;2772;42.700;23.304;2022-08-06T14:26:14;7.77;;;6.13;;
5499;SDS011;2772;42.700;23.304;2022-08-06T14:28:41;7.00;;;6.33;;
5499;SDS011;2772;42.700;23.304;2022-08-06T14:31:07;6.80;;;6.20;;
5499;SDS011;2772;42.700;23.304;2022-08-06T14:33:35;6.90;;;6.10;;
5499;SDS011;2772;42.700;23.304;2022-08-06T14:36:04;7.60;;;6.90;;
5499;SDS011;2772;42.700;23.304;2022-08-06T14:38:31;6.80;;;6.30;;
5499;SDS011;2772;42.700;23.304;2022-08-06T14:40:58;6.50;;;6.07;;
5499;SDS011;2772;42.700;23.304;2022-08-06T14:43:42;6.30;;;5.93;;
5499;SDS011;2772;42.700;23.304;2022-08-06T14:46:28;7.00;;;6.40;;
5499;SDS011;2772;42.700;23.304;2022-08-06T14:48:55;6.70;;;6.00;;
5499;SDS011;2772;42.700;23.304;2022-08-06T14:51:23;7.30;;;6.70;;
5499;SDS011;2772;42.700;23.304;2022-08-06T14:53:51;7.47;;;6.87;;
5499;SDS011;2772;42.700;23.304;2022-08-06T14:56:17;7.53;;;6.80;;
5499;SDS011;2772;42.700;23.304;2022-08-06T14:58:44;7.47;;;6.77;;
5499;SDS011;2772;42.700;23.304;2022-08-06T15:01:11;7.17;;;6.50;;
5499;SDS011;2772;42.700;23.304;2022-08-06T15:03:38;7.10;;;6.23;;
5499;SDS011;2772;42.700;23.304;2022-08-06T15:06:05;7.10;;;6.63;;
5499;SDS011;2772;42.700;23.304;2022-08-06T15:08:34;6.43;;;5.93;;
5499;SDS011;2772;42.700;23.304;2022-08-06T15:11:03;7.27;;;6.67;;
5499;SDS011;2772;42.700;23.304;2022-08-06T15:13:30;7.27;;;6.73;;
5499;SDS011;2772;42.700;23.304;2022-08-06T15:15:57;7.17;;;6.57;;
5499;SDS011;2772;42.700;23.304;2022-08-06T15:18:24;7.40;;;6.70;;
5499;SDS011;2772;42.700;23.304;2022-08-06T15:20:51;8.60;;;7.50;;
5499;SDS011;2772;42.700;23.304;2022-08-06T15:23:18;7.67;;;6.73;;
5499;SDS011;2772;42.700;23.304;2022-08-06T15:25:47;8.77;;;7.00;;
5499;SDS011;2772;42.700;23.304;2022-08-06T15:28:14;8.00;;;7.20;;
5499;SDS011;2772;42.700;23.304;2022-08-06T15:30:42;8.47;;;7.67;;
5499;SDS011;2772;42.700;23.304;2022-08-06T15:33:09;14.03;;;7.20;;
5499;SDS011;2772;42.700;23.304;2022-08-06T15:35:36;10.40;;;6.87;;
5499;SDS011;2772;42.700;23.304;2022-08-06T15:38:02;7.60;;;7.00;;
5499;SDS011;2772;42.700;23.304;2022-08-06T15:40:29;8.80;;;8.00;;
5499;SDS011;2772;42.700;23.304;2022-08-06T15:42:58;7.07;;;6.63;;
5499;SDS011;2772;42.700;23.304;2022-08-06T15:45:25;7.03;;;6.53;;
5499;SDS011;2772;42.700;23.304;2022-08-06T15:47:52;7.70;;;7.10;;
5499;SDS011;2772;42.700;23.304;2022-08-06T15:50:19;10.27;;;7.53;;
5499;SDS011;2772;42.700;23.304;2022-08-06T15:52:46;9.00;;;7.47;;
5499;SDS011;2772;42.700;23.304;2022-08-06T15:55:13;7.80;;;7.20;;
5499;SDS011;2772;42.700;23.304;2022-08-06T15:57:40;7.43;;;6.70;;
5499;SDS011;2772;42.700;23.304;2022-08-06T16:00:09;7.80;;;7.10;;
5499;SDS011;2772;42.700;23.304;2022-08-06T16:02:36;8.17;;;7.40;;
5499;SDS011;2772;42.700;23.304;2022-08-06T16:05:03;7.90;;;7.30;;
5499;SDS011;2772;42.700;23.304;2022-08-06T16:07:31;8.73;;;7.87;;
5499;SDS011;2772;42.700;23.304;2022-08-06T16:09:58;8.60;;;7.37;;